Latest Weather Observations for Shepparton

IDV60801

Issued at 2:35 pm EDT Thursday 23 October 2014 (issued every 30 minutes, with the page automatically refreshed every 10 minutes)

About weather observations | Map of weather stations | Latest weather observations for VIC | Other Formats
Station Details ID: 081125 Name: SHEPPARTON AIRPORT Lat: -36.43 Lon: 145.39 Height: 113.9 m
Data from the previous 72 hours. | See also: Recent months at Shepparton
Date/Time
EDT
Temp
°C
App
Temp
°C
Dew
Point
Rel
Hum
%
Delta-T
°C
Wind Press
QNH
hPa
Press
MSL
hPa
Rain
since 9 am
mm
Dir
 
Spd
km/h
Gust
km/h
Spd
kts
Gust
kts
23/02:30pm 32.2 29.6 10.8 27 12.4 NNE 15 24 8 13 1013.1 1013.0 0.0
23/02:00pm 31.4 28.7 10.2 27 12.2 N 15 28 8 15 1013.4 1013.3 0.0
23/01:30pm 30.9 28.5 11.3 30 11.4 N 15 28 8 15 1013.9 1013.8 0.0
23/01:00pm 31.3 29.0 10.6 28 11.9 NE 13 20 7 11 1014.2 1014.1 0.0
23/12:30pm 30.8 29.1 11.2 30 11.4 NNE 11 20 6 11 1014.6 1014.5 0.0
23/12:00pm 29.5 28.0 12.0 34 10.2 NNE 11 20 6 11 1015.2 1015.1 0.0
23/11:30am 28.2 27.1 12.1 37 9.4 ENE 9 17 5 9 1015.6 1015.5 0.0
23/11:00am 26.7 26.1 13.4 43 7.9 E 9 15 5 8 1016.0 1015.9 0.0
23/10:30am 24.8 23.9 13.7 50 6.5 SSE 11 19 6 10 1016.5 1016.5 0.0
23/10:00am 23.1 21.8 13.6 55 5.5 SSE 13 19 7 10 1016.6 1016.6 0.0
23/09:30am 21.4 20.0 13.3 60 4.7 SSE 13 17 7 9 1016.9 1016.9 0.0
23/09:00am 19.6 17.8 13.3 67 3.6 S 15 17 8 9 1016.9 1016.9 0.0
23/08:30am 18.2 16.8 13.3 73 2.8 S 13 19 7 10 1016.9 1016.9 0.0
23/08:00am 16.6 15.4 12.8 78 2.1 S 11 15 6 8 1016.9 1016.9 0.0
23/07:30am 15.3 14.5 12.8 85 1.4 S 9 13 5 7 1016.8 1016.8 0.0
23/07:00am 14.7 13.7 12.4 86 1.3 SSE 9 15 5 8 1016.3 1016.3 0.0
23/06:30am 14.7 13.3 12.2 85 1.4 S 11 15 6 8 1016.2 1016.1 0.0
23/06:00am 15.0 13.6 12.3 84 1.5 SSE 11 13 6 7 1015.8 1015.7 0.0
23/05:30am 15.5 14.6 12.6 83 1.6 SSE 9 13 5 7 1015.6 1015.5 0.0
23/05:00am 15.4 14.9 12.2 81 1.8 S 6 7 3 4 1015.7 1015.6 0.0
23/04:30am 16.3 14.2 12.5 78 2.1 SSE 15 20 8 11 1015.6 1015.5 0.0
23/04:00am 17.1 16.2 12.6 75 2.5 SSE 9 13 5 7 1015.5 1015.4 0.0
23/03:30am 17.8 16.6 12.9 73 2.8 SSE 11 11 6 6 1015.4 1015.3 0.0
23/03:00am 17.9 17.6 12.6 71 3.0 SSE 6 9 3 5 1015.7 1015.6 0.0
23/02:30am 17.6 16.0 12.7 73 2.7 SE 13 15 7 8 1015.6 1015.5 0.0
23/02:00am 17.8 16.7 11.8 68 3.3 SSE 9 13 5 7 1015.7 1015.6 0.0
23/01:30am 19.5 18.8 12.0 62 4.2 SE 7 11 4 6 1015.7 1015.6 0.0
23/01:00am 22.6 21.5 12.0 51 6.0 ENE 9 13 5 7 1015.5 1015.4 0.0
23/12:30am 23.3 20.3 12.0 49 6.4 E 19 26 10 14 1015.1 1015.0 0.0
23/12:00am 23.0 19.9 12.3 51 6.1 NNE 20 22 11 12 1015.8 1015.7 0.0
 
Date/Time
EDT
Temp
°C
App
Temp
°C
Dew
Point
Rel
Hum
%
Delta-T
°C
Wind Press
QNH
hPa
Press
MSL
hPa
Rain
since 9 am
mm
Dir
 
Spd
km/h
Gust
km/h
Spd
kts
Gust
kts
22/11:30pm 22.6 22.0 12.3 52 5.9 E 7 9 4 5 1017.3 1017.3 0.0
22/11:00pm 22.9 23.5 11.9 50 6.2 CALM 0 0 0 0 1017.7 1017.7 0.0
22/10:30pm 23.7 24.1 11.4 46 6.9 CALM 0 6 0 3 1018.1 1018.1 0.0
22/10:00pm 23.4 18.2 12.7 51 6.2 W 32 50 17 27 1018.1 1018.1 0.0
22/09:58pm 22.8 17.7 13.0 54 5.6 W 32 50 17 27 1017.9 1017.9 0.0
22/09:57pm 21.9 17.6 13.3 58 5.0 W 28 41 15 22 1017.8 1017.8 0.0
22/09:30pm 22.3 20.7 12.8 55 5.5 E 13 17 7 9 1016.3 1016.3 0.0
22/09:00pm 22.3 20.5 12.0 52 5.8 E 13 17 7 9 1016.2 1016.1 0.0
22/08:30pm 23.0 22.6 12.3 51 6.1 E 6 7 3 4 1016.3 1016.3 0.0
22/08:00pm 24.7 24.1 11.6 44 7.4 NE 6 9 3 5 1016.0 1015.9 0.0
22/07:30pm 26.3 25.0 10.0 36 9.1 ENE 7 9 4 5 1015.7 1015.6 0.0
22/07:00pm 27.4 25.7 9.7 33 9.9 NNE 9 13 5 7 1015.7 1015.6 0.0
22/06:30pm 28.7 26.1 9.4 30 10.8 N 13 19 7 10 1015.4 1015.3 0.0
22/06:00pm 28.9 27.4 10.6 32 10.4 N 9 15 5 8 1015.8 1015.7 0.0
22/05:30pm 29.6 27.1 9.7 29 11.2 NNE 13 20 7 11 1015.8 1015.7 0.0
22/05:00pm 29.8 27.5 10.4 30 11.1 NNE 13 20 7 11 1016.0 1015.9 0.0
22/04:30pm 29.6 27.1 9.7 29 11.2 NNE 13 20 7 11 1016.3 1016.3 0.0
22/04:00pm 30.0 27.3 10.5 30 11.2 NNE 15 24 8 13 1016.7 1016.7 0.0
22/03:30pm 29.6 26.9 10.2 30 11.0 NE 15 26 8 14 1017.0 1017.0 0.0
22/03:00pm 28.5 25.4 10.2 32 10.3 NE 17 22 9 12 1017.5 1017.5 0.0
22/02:30pm 27.8 24.9 10.9 35 9.6 NNE 17 26 9 14 1017.9 1017.9 0.0
22/02:00pm 27.7 25.2 10.9 35 9.6 NNE 15 26 8 14 1018.4 1018.4 0.0
22/01:30pm 26.9 23.3 10.6 36 9.2 NE 20 30 11 16 1018.9 1018.9 0.0
22/01:00pm 26.4 22.9 10.9 38 8.8 NNE 20 30 11 16 1019.6 1019.5 0.0
22/12:30pm 25.1 21.9 11.3 42 7.8 NNE 19 30 10 16 1020.0 1019.9 0.0
22/12:00pm 24.5 21.0 10.8 42 7.7 NE 20 30 11 16 1020.6 1020.5 0.0
22/11:30am 23.3 19.8 11.0 46 6.9 NNE 20 28 11 15 1020.9 1020.8 0.0
22/11:00am 22.6 19.2 10.7 47 6.6 NNE 19 30 10 16 1021.5 1021.4 0.0
22/10:30am 21.4 17.4 10.6 50 5.9 NNE 22 30 12 16 1021.6 1021.5 0.0
22/10:00am 20.4 16.4 10.5 53 5.4 NE 22 32 12 17 1021.8 1021.7 0.0
22/09:30am 19.4 14.6 10.4 56 4.9 NNE 26 35 14 19 1022.0 1021.9 0.0
22/09:00am 18.1 14.0 10.2 60 4.2 NE 22 32 12 17 1022.2 1022.1 0.0
22/08:30am 16.9 12.3 9.8 63 3.7 NNE 24 39 13 21 1022.3 1022.2 0.0
22/08:00am 15.8 12.3 10.1 69 3.0 NNE 19 28 10 15 1022.5 1022.4 0.0
22/07:30am 14.1 11.7 10.1 77 2.1 NE 13 20 7 11 1022.4 1022.3 0.0
22/07:00am 12.9 10.8 9.9 82 1.5 NE 11 15 6 8 1022.3 1022.2 0.0
22/06:30am 12.6 10.9 9.8 83 1.4 NE 9 15 5 8 1022.3 1022.2 0.0
22/06:00am 13.0 11.0 10.0 82 1.5 NE 11 17 6 9 1022.1 1022.0 0.0
22/05:30am 13.0 10.6 10.2 83 1.5 NE 13 15 7 8 1021.8 1021.7 0.0
22/05:00am 13.3 12.0 10.1 81 1.7 NE 7 9 4 5 1021.8 1021.7 0.0
22/04:30am 13.8 12.2 10.2 79 1.9 NE 9 15 5 8 1021.7 1021.6 0.0
22/04:00am 14.2 12.3 10.4 78 2.0 NE 11 13 6 7 1021.5 1021.4 0.0
22/03:30am 14.5 12.5 10.3 76 2.2 NE 11 15 6 8 1022.0 1021.9 0.0
22/03:00am 15.0 13.1 10.6 75 2.3 NE 11 15 6 8 1022.0 1021.9 0.0
22/02:30am 15.4 13.1 10.6 73 2.6 NNE 13 17 7 9 1021.8 1021.7 0.0
22/02:00am 16.1 13.8 10.6 70 2.9 NE 13 17 7 9 1021.8 1021.7 0.0
22/01:30am 16.7 14.5 10.8 68 3.2 NE 13 17 7 9 1022.4 1022.3 0.0
22/01:00am 17.0 15.1 10.6 66 3.4 NE 11 17 6 9 1022.6 1022.5 0.0
22/12:30am 17.5 15.6 10.4 63 3.8 NE 11 13 6 7 1022.9 1022.8 0.0
22/12:00am 18.0 16.5 10.4 61 4.1 ENE 9 11 5 6 1023.2 1023.1 0.0
 
Date/Time
EDT
Temp
°C
App
Temp
°C
Dew
Point
Rel
Hum
%
Delta-T
°C
Wind Press
QNH
hPa
Press
MSL
hPa
Rain
since 9 am
mm
Dir
 
Spd
km/h
Gust
km/h
Spd
kts
Gust
kts
21/11:30pm 18.4 16.9 10.5 60 4.3 NE 9 11 5 6 1023.3 1023.2 0.0
21/11:00pm 16.1 14.9 10.4 69 3.0 E 7 13 4 7 1023.4 1023.3 0.0
21/10:30pm 16.6 16.7 10.2 66 3.4 CALM 0 0 0 0 1023.4 1023.3 0.0
21/10:00pm 18.0 18.1 10.1 60 4.2 CALM 0 4 0 2 1023.4 1023.3 0.0
21/09:30pm 17.9 16.8 10.8 63 3.8 ESE 7 9 4 5 1023.2 1023.1 0.0
21/09:00pm 18.8 18.0 10.9 60 4.3 ESE 6 7 3 4 1022.9 1022.8 0.0
21/08:30pm 20.0 19.0 10.4 54 5.2 E 6 7 3 4 1022.8 1022.7 0.0
21/08:00pm 22.1 20.9 10.3 47 6.4 E 7 11 4 6 1022.6 1022.5 0.0
21/07:30pm 22.8 21.1 9.9 44 7.1 E 9 13 5 7 1022.5 1022.4 0.0
21/07:00pm 23.6 22.1 9.2 40 7.8 N 7 9 4 5 1022.4 1022.3 0.0
21/06:30pm 25.5 22.8 8.9 35 9.0 N 13 19 7 10 1022.3 1022.2 0.0
21/06:00pm 26.5 23.9 9.4 34 9.4 NNE 13 22 7 12 1022.4 1022.3 0.0
21/05:30pm 26.7 23.5 8.6 32 9.9 N 15 26 8 14 1022.5 1022.4 0.0
21/05:00pm 27.5 26.2 9.3 32 10.1 NNE 6 15 3 8 1022.6 1022.5 0.0
21/04:30pm 27.3 23.9 9.2 32 10.0 NNE 17 24 9 13 1022.7 1022.6 0.0
21/04:00pm 27.0 23.8 8.4 31 10.1 NNE 15 20 8 11 1023.0 1022.9 0.0
21/03:30pm 27.3 24.8 9.6 33 9.9 NE 13 22 7 12 1023.4 1023.3 0.0
21/03:00pm 26.7 23.8 9.5 34 9.5 NNE 15 28 8 15 1023.9 1023.9 0.0
21/02:30pm 26.1 23.8 10.3 37 8.8 ENE 13 26 7 14 1024.4 1024.4 0.0
21/02:00pm 25.3 22.1 10.0 38 8.5 NNE 17 24 9 13 1025.0 1025.0 0.0
21/01:30pm 24.4 21.5 9.6 39 8.1 NE 15 22 8 12 1025.3 1025.3 0.0
21/01:00pm 24.5 22.7 9.6 39 8.1 NNE 9 20 5 11 1025.8 1025.8 0.0
21/12:30pm 22.7 18.9 9.1 42 7.3 NNE 19 33 10 18 1026.2 1026.2 0.0
21/12:00pm 22.0 17.8 9.9 46 6.6 NNE 22 37 12 20 1026.7 1026.7 0.0
21/11:30am 21.7 17.8 9.3 45 6.7 NE 20 28 11 15 1027.0 1027.0 0.0
21/11:00am 20.7 16.6 8.7 46 6.3 NNE 20 32 11 17 1027.2 1027.2 0.0
21/10:30am 19.4 14.6 8.7 50 5.6 NNE 24 32 13 17 1027.4 1027.4 0.0
21/10:00am 18.4 14.3 8.7 53 5.0 NNE 20 32 11 17 1027.7 1027.7 0.0
21/09:30am 17.3 12.1 8.7 57 4.5 NE 26 37 14 20 1027.5 1027.5 0.0
21/09:00am 16.4 12.0 8.9 61 3.9 NE 22 32 12 17 1027.4 1027.4 0.0
21/08:30am 15.2 11.8 9.1 67 3.1 NE 17 26 9 14 1027.5 1027.5 0.0
21/08:00am 13.6 10.6 9.1 74 2.3 ENE 15 20 8 11 1027.1 1027.1 0.0
21/07:30am 12.5 9.8 8.8 78 1.9 ENE 13 15 7 8 1026.9 1026.9 0.0
21/07:00am 10.4 8.5 9.0 91 0.7 ENE 9 13 5 7 1026.7 1026.7 0.0
21/06:30am 8.3 6.4 6.6 89 0.8 E 6 7 3 4 1026.5 1026.5 0.0
21/06:00am 10.9 9.2 8.5 85 1.2 ENE 7 11 4 6 1026.1 1026.1 0.0
21/05:30am 10.6 9.0 8.9 89 0.8 ENE 7 11 4 6 1025.8 1025.8 0.0
21/05:00am 10.0 8.4 7.8 86 1.1 E 6 7 3 4 1025.6 1025.6 0.0
21/04:30am 11.5 9.8 8.5 82 1.5 ENE 7 11 4 6 1025.5 1025.5 0.0
21/04:00am 12.0 10.0 8.8 81 1.6 NE 9 13 5 7 1025.2 1025.2 0.0
21/03:30am 12.8 9.8 9.4 80 1.7 NNE 15 20 8 11 1025.5 1025.5 0.0
21/03:00am 9.7 7.7 7.3 85 1.1 ENE 7 9 4 5 1025.5 1025.5 0.0
21/02:30am 9.5 7.5 7.3 86 1.0 E 7 9 4 5 1025.3 1025.3 0.0
21/02:00am 8.7 6.6 6.5 86 1.0 SSE 7 9 4 5 1025.3 1025.3 0.0
21/01:30am 9.1 6.2 6.5 84 1.2 SE 11 13 6 7 1025.2 1025.2 0.0
21/01:00am 10.5 8.5 7.2 80 1.6 SSE 7 11 4 6 1025.2 1025.2 0.0
21/12:30am 11.4 8.6 7.1 75 2.1 SSE 11 13 6 7 1025.1 1025.1 0.0
21/12:00am 12.1 9.3 7.0 71 2.4 SSE 11 15 6 8 1025.0 1025.0 0.0
 
Date/Time
EDT
Temp
°C
App
Temp
°C
Dew
Point
Rel
Hum
%
Delta-T
°C
Wind Press
QNH
hPa
Press
MSL
hPa
Rain
since 9 am
mm
Dir
 
Spd
km/h
Gust
km/h
Spd
kts
Gust
kts
20/11:30pm 12.9 10.0 6.7 66 3.0 SSE 11 13 6 7 1024.9 1024.9 0.0
20/11:00pm 14.0 10.9 7.1 63 3.4 SSE 13 22 7 12 1024.7 1024.7 0.0
20/10:30pm 15.0 11.5 7.3 60 3.8 SSE 15 20 8 11 1024.7 1024.7 0.0
20/10:00pm 15.3 11.4 7.1 58 4.0 SSE 17 22 9 12 1024.6 1024.6 0.0
20/09:30pm 15.6 12.0 6.9 56 4.3 SSE 15 20 8 11 1024.5 1024.5 0.0
20/09:00pm 16.5 12.9 6.9 53 4.7 S 15 19 8 10 1024.5 1024.5 0.0
20/08:30pm 16.6 13.4 6.7 52 4.9 S 13 17 7 9 1023.9 1023.9 0.0
20/08:00pm 17.9 14.2 6.4 47 5.7 S 15 20 8 11 1023.6 1023.5 0.0
20/07:30pm 19.6 15.1 6.0 41 6.8 S 19 26 10 14 1023.5 1023.4 0.0
20/07:00pm 21.0 16.2 5.8 37 7.6 SSW 20 30 11 16 1023.2 1023.1 0.0
20/06:30pm 22.3 17.1 5.7 34 8.4 SSW 22 28 12 15 1023.1 1023.0 0.0
20/06:00pm 23.6 18.1 6.0 32 9.0 S 24 32 13 17 1023.1 1023.0 0.0
20/05:30pm 24.4 18.5 3.7 26 10.2 SSW 24 32 13 17 1022.9 1022.8 0.0
20/05:00pm 25.2 19.5 2.6 23 10.9 S 22 28 12 15 1022.9 1022.8 0.0
20/04:30pm 25.7 20.6 3.0 23 11.2 S 19 30 10 16 1022.9 1022.8 0.0
20/04:00pm 25.2 20.4 2.6 23 10.9 S 17 24 9 13 1023.0 1022.9 0.0
20/03:30pm 25.2 20.6 3.8 25 10.6 S 17 24 9 13 1023.3 1023.2 0.0
20/03:00pm 25.4 20.7 3.4 24 10.8 SSW 17 28 9 15 1023.6 1023.5 0.0

Other Formats:

Comma delimited format used in spreadsheet applications
http://www.bom.gov.au/fwo/IDV60801/IDV60801.94875.axf

JavaScript Object Notation format (JSON) in row-major order
http://www.bom.gov.au/fwo/IDV60801/IDV60801.94875.json